Nearby METAR Reports

 

EGEO - Oban, United Kingdom
Distance from station: SSW 18mi, 30km
Updated: 04/03/2021 15:50
NOT Current
Few Clouds
Few Clouds
 Wind from E
Wind: E 9 mph , 15 km/h
Temperature: 7°C
Wind Chill: 4°C
Dew Point: -2°C
Humidity: 53%
Barometer: 1030 hPa
Clouds: Few Clouds
Visibility: 6 miles , 10 km
Cloud details: Few Clouds 1372 m
2021/03/04 15:50 EGEO 041550Z 09008KT 060V130 9999 FEW045 07/M02 Q1030
EGPU - Tiree, United Kingdom
Distance from station: WSW 64mi, 103km
Updated: 09/03/2021 06:20
Few Clouds
Few Clouds
 Wind from S
Wind: S 14 mph , 22 km/h
Temperature: 7°C
Wind Chill: 4°C
Dew Point: 6°C
Humidity: 93%
Barometer: 1012 hPa
Clouds: Few Clouds
Visibility: 6 miles , 10 km
Cloud details: Few Clouds 91 m
2021/03/09 06:20 EGPU 090620Z AUTO 19012KT 9999 FEW003/// 07/06 Q1012
EGPF - Glasgow, United Kingdom
Distance from station: SSE 66mi, 107km
Updated: 09/03/2021 06:20
Overcast
Overcast
 Wind from SSE
Wind: SSE 6 mph , 9 km/h
Temperature: 7°C
Wind Chill: 6°C
Dew Point: 6°C
Humidity: 93%
Barometer: 1015 hPa
Clouds: Overcast
Visibility: 6 miles , 10 km
Cloud details: Mostly cloudy 274 m
Overcast 366 m
2021/03/09 06:20 EGPF 090620Z AUTO 16005KT 9999 BKN009 OVC012 07/06 Q1015
 
EGPE - Inverness, United Kingdom
Distance from station: NE 71mi, 114km
Updated: 09/03/2021 06:20
Partly cloudy
Partly cloudy
 Wind from WSW
Wind: WSW 5 mph , 7 km/h
Temperature: 7°C
Wind Chill: 6°C
Dew Point: 4°C
Humidity: 81%
Barometer: 1013 hPa
Clouds: Partly cloudy
Visibility: 6 miles , 10 km
Cloud details: Few Clouds 305 m
Partly cloudy 914 m
2021/03/09 06:20 EGPE 090620Z 24004KT 220V290 9999 FEW010 SCT030 07/04 Q1013
EGPI - Islay/Port Ellen, United Kingdom
Distance from station: SSW 81mi, 131km
Updated: 09/03/2021 06:20
Mostly cloudy
Mostly cloudy
 Wind from SSE
Wind: SSE 10 mph , 17 km/h
Temperature: 7°C
Wind Chill: 4°C
Dew Point: 6°C
Humidity: 93%
Barometer: 1014 hPa
Clouds: Mostly cloudy
Visibility: 6 miles , 10 km
Cloud details: Mostly cloudy 732 m
2021/03/09 06:20 EGPI 090620Z AUTO 16009KT 360V060 9999 BKN024/// 07/06 Q1014
EGPN - Dundee/Riverside, United Kingdom
Distance from station: E 86mi, 138km
Updated: 08/03/2021 19:50
NOT Current
Few Clouds
Few Clouds
 Wind from WSW
Wind: WSW 8 mph , 13 km/h
Temperature: 8°C
Wind Chill: 6°C
Dew Point: 6°C
Humidity: 87%
Barometer: 1018 hPa
Clouds: Few Clouds
Visibility: 6 miles , 10 km
Cloud details: Few Clouds 762 m
2021/03/08 19:50 EGPN 081950Z 24007KT 9999 FEW025 08/06 Q1018
 
EGPK - Prestwick, United Kingdom
Distance from station: SSE 88mi, 141km
Updated: 09/03/2021 06:20
Overcast
Overcast
 Wind from SSE
Wind: SSE 6 mph , 9 km/h
Temperature: 7°C
Wind Chill: 6°C
Dew Point: 6°C
Humidity: 93%
Barometer: 1015 hPa
Clouds: Overcast
Visibility: 6 miles , 10 km
Cloud details: Mostly cloudy 305 m
Overcast 549 m
2021/03/09 06:20 EGPK 090620Z 16005KT 9999 BKN010 OVC018 07/06 Q1015
EGPH - Edinburgh, United Kingdom
Distance from station: SE 89mi, 143km
Updated: 09/03/2021 06:20
Mostly cloudy
Mostly cloudy
 Wind from varies
Wind: varies 3 mph , 6 km/h
Temperature: 7°C
Dew Point: 5°C
Humidity: 87%
Barometer: 1015 hPa
Clouds: Mostly cloudy
Visibility: 6 miles , 10 km
Cloud details: Mostly cloudy 1219 m
2021/03/09 06:20 EGPH 090620Z VRB03KT 9999 BKN040 07/05 Q1015
EGQK - RAF Kinloss, United Kingdom
Distance from station: NE 90mi, 144km
Updated: 09/03/2021 05:50
Few Clouds
Few Clouds
 Wind from SE
Wind: SE 1 mph , 2 km/h
Temperature: 3°C
Dew Point: 1°C
Humidity: 87%
Barometer: 1013 hPa
Clouds: Few Clouds
Visibility: 6 miles , 10 km
Cloud details: Few Clouds 1829 m
2021/03/09 05:50 EGQK 090550Z AUTO 14001KT 9999 FEW060/// 03/01 Q1013
 
EGEC - Campbeltown, United Kingdom
Distance from station: S 90mi, 145km
Updated: 08/03/2021 09:20
NOT Current
Clear
Clear
 Wind from WSW
Wind: WSW 12 mph , 19 km/h
Temperature: 7°C
Wind Chill: 4°C
Dew Point: 6°C
Humidity: 93%
Barometer: 1020 hPa
Summary: Clear
Visibility: greater than 7 miles , 10 km
2021/03/08 09:20 EGEC 080920Z 25010KT CAVOK 07/06 Q1020
EGQA - Tain Range, United Kingdom
Distance from station: NNE 91mi, 146km
Updated: 04/03/2021 13:50
NOT Current
Mostly cloudy
Mostly cloudy
 Wind from NNE
Wind: NNE 12 mph , 19 km/h
Clouds: Mostly cloudy
Visibility: 6 miles , 10 km
Cloud details: Mostly cloudy 1067 m
2021/03/04 13:50 EGQA 041350Z 02010KT 9999 BKN035 06/// Q1033 RMK BLU
EGQL - RAF Leuchars, United Kingdom
Distance from station: ESE 93mi, 149km
Updated: 09/03/2021 05:50
Overcast
Overcast
 Wind from W
Wind: W 2 mph , 4 km/h
Temperature: 7°C
Dew Point: 6°C
Humidity: 93%
Barometer: 1015 hPa
Clouds: Overcast
Visibility: 6 miles , 10 km
Cloud details: Overcast 1219 m
2021/03/09 05:50 EGQL 090550Z 26002KT 9999 OVC040 07/06 Q1015 BLU
 
EGPL - Benbecula, United Kingdom
Distance from station: WNW 96mi, 154km
Updated: 09/03/2021 06:20
Overcast
Overcast
 Wind from S
Wind: S 9 mph , 15 km/h
Temperature: 7°C
Wind Chill: 4°C
Dew Point: 7°C
Humidity: 100%
Barometer: 1011 hPa
Clouds: Overcast
Visibility: 5 miles , 8 km
Cloud details: Overcast 61 m
2021/03/09 06:20 EGPL 090620Z AUTO 18008KT 8000 OVC002/// 07/07 Q1011
EGQS - RAF Lossiemouth, United Kingdom
Distance from station: NE 99mi, 160km
Updated: 09/03/2021 05:50
Few Clouds
Few Clouds
 Wind from S
Wind: S 3 mph , 6 km/h
Temperature: 4°C
Dew Point: 3°C
Humidity: 93%
Barometer: 1013 hPa
Clouds: Few Clouds
Visibility: 6 miles , 10 km
Cloud details: Few Clouds 1219 m
2021/03/09 05:50 EGQS 090550Z 18003KT 9999 FEW040 04/03 Q1013 RMK BLU
EGPO - Stornoway, United Kingdom
Distance from station: NNW 111mi, 179km
Updated: 09/03/2021 06:20
Mostly cloudy
Mostly cloudy
 Wind from S
Wind: S 13 mph , 20 km/h
Temperature: 7°C
Wind Chill: 4°C
Dew Point: 6°C
Humidity: 93%
Barometer: 1010 hPa
Clouds: Mostly cloudy
Visibility: 6 miles , 10 km
Cloud details: Partly cloudy 122 m
Partly cloudy 244 m
Mostly cloudy 1280 m
2021/03/09 06:20 EGPO 090620Z 19011KT 9999 SCT004 SCT008 BKN042 07/06 Q1010
 
EGPD - Aberdeen/Dyce, United Kingdom
Distance from station: ENE 118mi, 190km
Updated: 09/03/2021 06:20
Overcast
Overcast
 Wind from SE
Wind: SE 7 mph , 11 km/h
Temperature: 5°C
Wind Chill: 2°C
Dew Point: 5°C
Humidity: 100%
Barometer: 1015 hPa
Clouds: Overcast
Visibility: 6 miles , 10 km
Cloud details: Partly cloudy 152 m
Overcast 1189 m
2021/03/09 06:20 EGPD 090620Z AUTO 14006KT 9999 SCT005 OVC039 05/05 Q1015 TEMPO BKN004
EGAE - Eglinton/Londond, United Kingdom
Distance from station: SSW 138mi, 222km
Updated: 09/03/2021 06:20
Few Clouds
Few Clouds
 Wind from SSW
Wind: SSW 13 mph , 20 km/h
Temperature: 7°C
Wind Chill: 4°C
Dew Point: 6°C
Humidity: 93%
Barometer: 1014 hPa
Clouds: Few Clouds
Visibility: 6 miles , 10 km
Cloud details: Few Clouds 396 m
2021/03/09 06:20 EGAE 090620Z 21011KT 9999 FEW013 07/06 Q1014
EGPC - Wick, United Kingdom
Distance from station: NNE 144mi, 232km
Updated: 09/03/2021 06:20
Clear
Clear
 Wind from SSE
Wind: SSE 12 mph , 19 km/h
Temperature: 6°C
Wind Chill: 3°C
Dew Point: 5°C
Humidity: 93%
Barometer: 1012 hPa
Clouds: Clear
Visibility: 6 miles , 10 km
2021/03/09 06:20 EGPC 090620Z AUTO 15010KT 9999 NCD 06/05 Q1012

Metar display script from Saratoga-Weather.org